Time;durP1;ratioP1;P1;durP2;ratioP2;P2;SDS_P1;SDS_P2;PMS_P1;PMS_P2;Temp;Humidity;BMP_temperature;BMP_pressure;BME280_temperature;BME280_humidity;BME280_pressure;Samples;Min_cycle;Max_cycle;Signal;HPM_P1;HPM_P2
2022/11/19 00:02:01;;;;;;;5.43;5.23;;;8.60;1.00;;;;;;4857177;29;20575;-80
2022/11/19 00:04:30;;;;;;;5.20;5.00;;;8.60;89.60;;;;;;4864074;29;20479;-80
2022/11/19 00:06:59;;;;;;;5.50;5.20;;;8.50;99.90;;;;;;4865165;29;20525;-80
2022/11/19 00:09:27;;;;;;;5.53;5.33;;;8.50;68.70;;;;;;4858056;29;20460;-80
2022/11/19 00:14:41;;;;;;;5.77;5.57;;;8.50;1.00;;;;;;4864037;29;20458;-80
2022/11/19 00:17:09;;;;;;;5.80;5.60;;;8.60;1.00;;;;;;4861346;29;20701;-79
2022/11/19 00:19:38;;;;;;;5.27;5.07;;;8.80;1.00;;;;;;4866026;29;20478;-79
2022/11/19 00:22:07;;;;;;;5.43;5.23;;;8.90;1.00;;;;;;4860895;29;20511;-80
2022/11/19 00:24:35;;;;;;;5.50;5.40;;;8.70;99.90;;;;;;4864346;29;20467;-79
2022/11/19 00:27:03;;;;;;;5.90;5.47;;;8.80;1.00;;;;;;4860520;29;20471;-79
2022/11/19 00:29:31;;;;;;;5.23;5.03;;;8.70;99.90;;;;;;4867032;29;21935;-78
2022/11/19 00:31:59;;;;;;;4.90;4.70;;;8.70;1.00;;;;;;4861049;29;20480;-79
2022/11/19 00:34:28;;;;;;;5.33;5.13;;;8.70;1.00;;;;;;4862506;29;20478;-79
2022/11/19 00:36:57;;;;;;;5.43;5.23;;;8.70;1.00;;;;;;4862097;29;20551;-80
2022/11/19 00:39:25;;;;;;;5.40;5.20;;;8.60;99.90;;;;;;4865158;29;20887;-80
2022/11/19 00:41:54;;;;;;;5.60;5.43;;;8.70;1.00;;;;;;4861721;29;20574;-80
2022/11/19 00:44:22;;;;;;;5.47;5.37;;;8.70;1.00;;;;;;4859883;29;20523;-79
2022/11/19 00:46:50;;;;;;;5.30;5.00;;;8.70;1.00;;;;;;4866694;29;20460;-80
2022/11/19 00:49:18;;;;;;;5.00;4.80;;;8.70;99.90;;;;;;4864216;29;21231;-79
2022/11/19 00:51:47;;;;;;;4.47;4.37;;;8.70;1.00;;;;;;4861364;29;20749;-79
2022/11/19 00:54:17;;;;;;;5.30;5.10;;;8.60;1.00;;;;;;4861586;29;20540;-81
2022/11/19 00:56:45;;;;;;;4.70;4.60;;;8.70;1.00;;;;;;4857981;29;20864;-79
2022/11/19 00:59:13;;;;;;;5.20;4.73;;;8.60;99.90;;;;;;4864832;29;21409;-80
2022/11/19 01:01:42;;;;;;;4.60;4.50;;;8.60;99.90;;;;;;4862002;29;20495;-80
2022/11/19 01:04:10;;;;;;;4.47;4.37;;;8.60;1.00;;;;;;4862669;29;20482;-80
2022/11/19 01:06:39;;;;;;;4.37;4.27;;;8.60;1.00;;;;;;4863710;29;20587;-80
2022/11/19 01:09:07;;;;;;;4.73;4.63;;;8.60;1.00;;;;;;4861829;29;20473;-80
2022/11/19 01:11:38;;;;;;;4.23;4.13;;;8.70;1.00;;;;;;4865067;29;20487;-79
2022/11/19 01:14:06;;;;;;;4.30;4.20;;;8.60;1.00;;;;;;4860198;29;20464;-80
2022/11/19 01:16:36;;;;;;;4.40;4.20;;;8.70;99.90;;;;;;4863953;29;20514;-80
2022/11/19 01:19:06;;;;;;;4.30;4.20;;;8.70;99.90;;;;;;4861227;29;20470;-80
2022/11/19 01:21:36;;;;;;;4.53;4.33;;;8.60;1.00;;;;;;4862776;29;20485;-79
2022/11/19 01:24:05;;;;;;;4.00;3.90;;;8.60;1.00;;;;;;4864273;29;20465;-80
2022/11/19 01:26:34;;;;;;;4.30;4.10;;;8.50;1.00;;;;;;4860065;29;21074;-80
2022/11/19 01:29:03;;;;;;;4.53;4.30;;;8.50;15.80;;;;;;4859648;29;20472;-80
2022/11/19 01:31:31;;;;;;;4.20;4.10;;;8.60;1.00;;;;;;4859596;29;20485;-80
2022/11/19 01:34:00;;;;;;;4.60;4.40;;;8.60;1.00;;;;;;4862056;29;21043;-80
2022/11/19 01:36:29;;;;;;;4.97;4.67;;;8.60;1.00;;;;;;4859910;29;20559;-80
2022/11/19 01:38:58;;;;;;;4.13;4.03;;;8.60;1.00;;;;;;4863125;29;20539;-80
2022/11/19 01:41:28;;;;;;;4.57;4.47;;;8.50;1.00;;;;;;4865740;29;20482;-80
2022/11/19 01:43:59;;;;;;;4.67;4.47;;;8.70;1.00;;;;;;4860914;29;20467;-80
2022/11/19 01:46:32;;;;;;;4.70;4.50;;;8.70;1.00;;;;;;4861993;29;20463;-80
2022/11/19 01:49:05;;;;;;;4.60;4.40;;;8.60;1.00;;;;;;4861953;29;20468;-79
2022/11/19 01:51:38;;;;;;;4.40;4.30;;;8.60;1.00;;;;;;4862839;29;20480;-81
2022/11/19 01:54:12;;;;;;;4.90;4.80;;;8.40;1.00;;;;;;4863430;29;20474;-80
2022/11/19 01:56:40;;;;;;;4.70;4.50;;;8.60;24.80;;;;;;4860566;29;21010;-80
2022/11/19 01:59:14;;;;;;;4.50;4.40;;;8.40;1.00;;;;;;4860958;29;20468;-79
2022/11/19 02:01:44;;;;;;;8.20;4.90;;;8.50;1.00;;;;;;4859555;29;20494;-80
2022/11/19 02:04:16;;;;;;;5.30;5.00;;;8.40;1.00;;;;;;4859357;29;20506;-79
2022/11/19 02:06:45;;;;;;;4.63;4.53;;;8.50;1.00;;;;;;4864890;29;20916;-80
2022/11/19 02:09:14;;;;;;;4.63;4.53;;;8.60;1.00;;;;;;4863681;29;20916;-79
2022/11/19 02:12:09;;;;;;;4.80;4.60;;;8.50;1.00;;;;;;4863337;29;21064;-80
2022/11/19 02:15:00;;;;;;;4.97;4.60;;;8.50;1.00;;;;;;4863037;29;20969;-80
2022/11/19 02:17:50;;;;;;;4.80;4.70;;;8.50;1.00;;;;;;4864613;29;20487;-80
2022/11/19 02:20:41;;;;;;;5.37;5.13;;;8.50;1.00;;;;;;4859999;29;20499;-80
2022/11/19 02:23:31;;;;;;;4.27;4.07;;;8.60;1.00;;;;;;4861702;29;20485;-80
2022/11/19 02:26:40;;;;;;;4.60;4.50;;;8.50;99.90;;;;;;4862549;29;20497;-80
2022/11/19 02:29:19;;;;;;;4.80;4.50;;;8.60;1.00;;;;;;4864390;29;20558;-79
2022/11/19 02:31:56;;;;;;;5.07;4.87;;;8.50;1.00;;;;;;4859152;29;20487;-80
2022/11/19 02:34:28;;;;;;;5.03;4.93;;;8.40;1.00;;;;;;4859431;29;20801;-79
2022/11/19 02:37:00;;;;;;;4.70;4.60;;;8.30;99.90;;;;;;4862071;29;20962;-79
2022/11/19 02:39:36;;;;;;;5.13;4.93;;;8.40;1.00;;;;;;4861739;29;20528;-79
2022/11/19 02:42:08;;;;;;;5.00;4.80;;;8.40;99.90;;;;;;4859021;29;21014;-79
2022/11/19 02:45:00;;;;;;;4.73;4.63;;;8.40;99.90;;;;;;4866375;29;20466;-80
2022/11/19 02:47:37;;;;;;;4.70;4.60;;;8.50;99.90;;;;;;4864539;29;20466;-80
2022/11/19 02:50:11;;;;;;;5.20;5.00;;;8.40;99.90;;;;;;4864771;29;20471;-80
2022/11/19 02:52:40;;;;;;;5.37;5.17;;;8.40;99.90;;;;;;4862290;29;20487;-79
2022/11/19 02:55:12;;;;;;;4.70;4.60;;;8.40;99.90;;;;;;4862932;29;20469;-79
2022/11/19 02:57:42;;;;;;;5.37;5.17;;;8.40;99.90;;;;;;4862717;29;20516;-78
2022/11/19 03:05:54;;;;;;;4.70;4.60;;;8.40;99.90;;;;;;4863574;29;20526;-79
2022/11/19 03:08:22;;;;;;;5.10;4.90;;;8.50;1.00;;;;;;4864856;29;20562;-79
2022/11/19 03:10:59;;;;;;;4.70;4.60;;;8.60;99.90;;;;;;4864468;29;20523;-79
2022/11/19 03:16:41;;;;;;;5.23;5.00;;;8.40;99.90;;;;;;4864569;29;20482;-80
2022/11/19 03:19:20;;;;;;;5.27;5.07;;;8.30;1.00;;;;;;4863645;29;20470;-79
2022/11/19 03:21:54;;;;;;;5.70;5.30;;;8.40;99.90;;;;;;4864451;29;20474;-80
2022/11/19 03:24:29;;;;;;;5.13;4.73;;;8.30;1.00;;;;;;4862259;29;20455;-80
2022/11/19 03:27:04;;;;;;;5.57;5.30;;;8.20;1.00;;;;;;4867374;29;20457;-79
2022/11/19 03:29:36;;;;;;;5.00;4.80;;;8.20;99.90;;;;;;4861793;29;20460;-80
2022/11/19 03:32:08;;;;;;;5.10;5.00;;;8.20;99.40;;;;;;4861182;29;20487;-80
2022/11/19 03:34:39;;;;;;;4.70;4.60;;;8.20;99.90;;;;;;4861560;29;21328;-79
2022/11/19 03:37:09;;;;;;;4.67;4.50;;;8.30;99.90;;;;;;4859475;29;20486;-80
2022/11/19 03:39:38;;;;;;;5.40;5.20;;;8.40;1.00;;;;;;4864354;29;20825;-79
2022/11/19 03:42:11;;;;;;;5.20;5.00;;;8.40;1.00;;;;;;4861865;29;20491;-80
2022/11/19 03:44:43;;;;;;;5.07;4.87;;;8.20;99.90;;;;;;4866970;29;20461;-79
2022/11/19 03:47:14;;;;;;;5.30;5.20;;;8.30;99.90;;;;;;4861510;29;20457;-79
2022/11/19 03:49:48;;;;;;;4.97;4.77;;;8.50;1.00;;;;;;4863595;29;20819;-79
2022/11/19 03:52:19;;;;;;;4.80;4.70;;;8.60;99.90;;;;;;4862130;29;20515;-80
2022/11/19 03:54:48;;;;;;;4.87;4.77;;;8.50;99.90;;;;;;4860473;29;20512;-79
2022/11/19 03:57:18;;;;;;;4.77;4.67;;;8.60;99.90;;;;;;4860891;29;20564;-78
2022/11/19 03:59:47;;;;;;;5.23;5.03;;;8.50;99.90;;;;;;4863553;29;20477;-79
2022/11/19 04:02:16;;;;;;;4.77;4.67;;;8.60;1.00;;;;;;4861525;29;20494;-79
2022/11/19 04:04:45;;;;;;;4.90;4.80;;;8.50;1.00;;;;;;4863655;29;20471;-79
2022/11/19 04:07:15;;;;;;;5.10;4.90;;;8.40;99.90;;;;;;4860644;29;20516;-79
2022/11/19 04:09:43;;;;;;;6.00;5.63;;;8.30;1.00;;;;;;4864560;29;20466;-79
2022/11/19 04:12:16;;;;;;;5.30;5.00;;;8.40;99.90;;;;;;4863687;29;20489;-80
2022/11/19 04:14:44;;;;;;;5.00;4.90;;;8.30;1.00;;;;;;4862691;29;20473;-80
2022/11/19 04:17:13;;;;;;;5.77;5.57;;;8.30;99.90;;;;;;4857341;29;20515;-80
2022/11/19 04:19:41;;;;;;;5.50;5.23;;;8.30;99.90;;;;;;4858979;29;20469;-80
2022/11/19 04:22:11;;;;;;;5.70;5.60;;;8.30;1.00;;;;;;4863013;29;20483;-79
2022/11/19 04:24:39;;;;;;;5.70;5.60;;;8.40;1.00;;;;;;4863443;29;20463;-80
2022/11/19 04:27:07;;;;;;;5.53;5.33;;;8.50;99.90;;;;;;4861090;29;20502;-79
2022/11/19 04:29:35;;;;;;;6.23;5.97;;;8.40;99.90;;;;;;4866125;29;20525;-80
2022/11/19 04:32:04;;;;;;;5.33;5.23;;;8.30;99.90;;;;;;4857526;29;20518;-80
2022/11/19 04:34:32;;;;;;;5.70;5.40;;;8.30;99.90;;;;;;4862601;29;20551;-80
2022/11/19 04:37:00;;;;;;;5.90;5.70;;;8.40;99.90;;;;;;4861603;29;20566;-79
2022/11/19 04:39:30;;;;;;;5.73;5.63;;;8.50;99.90;;;;;;4864895;29;20519;-80
2022/11/19 04:41:58;;;;;;;6.00;5.80;;;8.40;39.40;;;;;;4861534;29;20475;-79
2022/11/19 04:44:26;;;;;;;6.00;5.90;;;8.40;1.00;;;;;;4858390;29;20559;-79
2022/11/19 04:46:54;;;;;;;6.27;6.07;;;8.40;1.00;;;;;;4860738;29;20544;-79
2022/11/19 04:49:22;;;;;;;6.90;6.60;;;8.30;99.90;;;;;;4865821;29;20969;-80
2022/11/19 04:51:50;;;;;;;6.33;6.13;;;8.10;99.90;;;;;;4863091;29;20566;-80
2022/11/19 04:54:18;;;;;;;5.97;5.77;;;8.00;1.00;;;;;;4862121;29;20545;-79
2022/11/19 04:56:48;;;;;;;6.73;6.43;;;8.20;1.00;;;;;;4863208;29;20471;-80
2022/11/19 04:59:16;;;;;;;6.20;6.00;;;8.20;1.00;;;;;;4863634;29;21080;-79
2022/11/19 05:01:45;;;;;;;6.37;6.17;;;8.10;1.00;;;;;;4855080;29;20509;-78
2022/11/19 05:04:13;;;;;;;7.10;6.70;;;8.20;11.00;;;;;;4858138;29;20480;-80
2022/11/19 05:06:42;;;;;;;5.93;5.80;;;8.20;68.80;;;;;;4860020;29;20472;-79
2022/11/19 05:09:10;;;;;;;6.70;6.40;;;8.40;1.00;;;;;;4861883;29;20876;-80
2022/11/19 05:11:38;;;;;;;6.23;6.03;;;8.50;99.90;;;;;;4860971;29;20575;-80
2022/11/19 05:14:08;;;;;;;6.53;6.20;;;8.50;1.00;;;;;;4872881;29;20470;-79
2022/11/19 05:16:36;;;;;;;6.00;5.80;;;8.30;6.30;;;;;;4859465;29;20499;-80
2022/11/19 05:19:04;;;;;;;6.80;6.60;;;8.40;99.90;;;;;;4857156;29;20534;-78
2022/11/19 05:21:32;;;;;;;6.47;6.10;;;8.40;99.90;;;;;;4859630;29;20507;-80
2022/11/19 05:24:01;;;;;;;6.40;6.20;;;8.20;99.90;;;;;;4859859;29;20455;-80
2022/11/19 05:26:29;;;;;;;6.37;6.17;;;8.40;99.90;;;;;;4861760;29;20990;-79
2022/11/19 05:28:57;;;;;;;5.97;5.80;;;8.40;1.00;;;;;;4860039;29;20455;-79
2022/11/19 05:31:27;;;;;;;6.20;6.00;;;8.40;1.00;;;;;;4860618;29;21053;-79
2022/11/19 05:33:55;;;;;;;6.50;6.30;;;8.40;99.90;;;;;;4857350;29;20470;-79
2022/11/19 05:36:23;;;;;;;6.80;6.40;;;8.50;1.00;;;;;;4860698;29;20549;-77
2022/11/19 05:38:51;;;;;;;6.40;6.27;;;8.50;99.90;;;;;;4862671;29;20494;-79
2022/11/19 05:41:19;;;;;;;6.33;6.13;;;8.30;99.90;;;;;;4861419;29;20477;-79
2022/11/19 05:43:47;;;;;;;5.90;5.80;;;8.20;99.90;;;;;;4862202;29;20467;-78
2022/11/19 05:46:16;;;;;;;6.10;5.90;;;8.10;99.90;;;;;;4859554;29;21037;-80
2022/11/19 05:48:45;;;;;;;6.30;6.10;;;8.20;99.90;;;;;;4862038;29;20523;-80
2022/11/19 05:51:14;;;;;;;6.67;6.40;;;8.20;99.90;;;;;;4863224;29;20500;-80
2022/11/19 05:53:43;;;;;;;6.10;6.00;;;8.20;99.90;;;;;;4863930;29;20935;-78
2022/11/19 05:56:12;;;;;;;6.10;5.90;;;8.20;99.90;;;;;;4859563;29;20534;-79
2022/11/19 05:58:40;;;;;;;6.07;5.97;;;8.30;99.90;;;;;;4862659;29;20916;-80
2022/11/19 06:01:08;;;;;;;6.90;6.70;;;8.30;99.90;;;;;;4858833;29;20472;-79
2022/11/19 06:03:36;;;;;;;6.57;6.47;;;8.40;99.90;;;;;;4859972;29;20571;-79
2022/11/19 06:06:07;;;;;;;7.30;7.10;;;8.50;1.00;;;;;;4863719;29;20468;-79
2022/11/19 06:08:35;;;;;;;6.70;6.60;;;8.40;99.90;;;;;;4862508;29;20469;-79
2022/11/19 06:11:03;;;;;;;7.53;7.23;;;8.50;99.90;;;;;;4862295;29;20504;-78
2022/11/19 06:13:31;;;;;;;7.10;6.80;;;8.40;86.30;;;;;;4862283;29;20514;-79
2022/11/19 06:16:00;;;;;;;7.10;6.90;;;8.50;99.90;;;;;;4861560;29;20480;-79
2022/11/19 06:18:28;;;;;;;7.13;6.73;;;8.30;99.90;;;;;;4871158;29;20491;-80
2022/11/19 06:20:56;;;;;;;7.50;7.17;;;8.40;99.90;;;;;;4867745;29;20469;-80
2022/11/19 06:23:26;;;;;;;7.53;7.33;;;8.40;99.90;;;;;;4869895;29;20467;-80
2022/11/19 06:25:54;;;;;;;7.77;7.57;;;8.40;99.90;;;;;;4870093;29;20889;-81
2022/11/19 06:28:22;;;;;;;7.37;7.17;;;8.50;69.00;;;;;;4871598;29;20469;-80
2022/11/19 06:30:51;;;;;;;7.40;7.10;;;8.40;1.00;;;;;;4866830;29;20470;-80
2022/11/19 06:33:19;;;;;;;7.07;6.97;;;8.40;68.10;;;;;;4864976;29;20960;-81
2022/11/19 06:35:49;;;;;;;7.23;7.03;;;8.20;99.90;;;;;;4860713;29;20571;-80
2022/11/19 06:38:17;;;;;;;7.50;7.30;;;8.20;99.90;;;;;;4865925;29;20478;-80
2022/11/19 06:40:47;;;;;;;6.80;6.70;;;8.20;99.90;;;;;;4863902;29;20472;-81
2022/11/19 06:43:15;;;;;;;6.87;6.67;;;8.30;99.90;;;;;;4866633;29;20595;-82
2022/11/19 06:45:43;;;;;;;9.23;7.03;;;8.30;99.90;;;;;;4862639;29;20489;-80
2022/11/19 06:48:11;;;;;;;6.70;6.60;;;8.20;70.70;;;;;;4860323;29;20461;-80
2022/11/19 06:50:39;;;;;;;6.80;6.70;;;8.30;44.20;;;;;;4863535;29;20466;-80
2022/11/19 06:53:07;;;;;;;7.20;7.00;;;8.40;99.90;;;;;;4862283;29;20484;-80
2022/11/19 06:55:35;;;;;;;7.03;6.83;;;8.40;1.00;;;;;;4865518;29;20467;-79
2022/11/19 06:58:06;;;;;;;7.20;7.00;;;8.40;91.00;;;;;;4866491;29;20485;-79
2022/11/19 07:00:35;;;;;;;7.40;7.20;;;8.30;1.00;;;;;;4865600;29;20467;-79
2022/11/19 07:03:03;;;;;;;7.07;6.97;;;8.30;99.90;;;;;;4867238;29;20487;-79
2022/11/19 07:05:31;;;;;;;7.50;7.10;;;8.30;99.90;;;;;;4863274;29;20549;-80
2022/11/19 07:07:59;;;;;;;7.27;7.10;;;8.20;1.00;;;;;;4861741;29;20714;-79
2022/11/19 07:10:32;;;;;;;6.97;6.87;;;8.30;1.00;;;;;;4865867;29;20471;-80
2022/11/19 07:13:00;;;;;;;7.33;7.23;;;8.40;99.90;;;;;;4866658;29;20491;-80
2022/11/19 07:15:30;;;;;;;7.10;6.90;;;8.40;99.90;;;;;;4863864;29;20456;-81
2022/11/19 07:17:58;;;;;;;7.30;7.00;;;8.50;1.00;;;;;;4866724;29;20540;-81
2022/11/19 07:20:26;;;;;;;6.90;6.80;;;8.40;1.00;;;;;;4865965;29;20513;-81
2022/11/19 07:22:54;;;;;;;7.23;7.13;;;8.40;1.00;;;;;;4867680;29;20535;-78
2022/11/19 07:25:26;;;;;;;7.00;6.80;;;8.30;1.00;;;;;;4870035;29;20471;-81
2022/11/19 07:27:54;;;;;;;7.23;7.03;;;8.40;99.90;;;;;;4867314;29;20941;-81
2022/11/19 07:30:22;;;;;;;7.00;6.90;;;8.40;1.00;;;;;;4870210;29;20791;-83
2022/11/19 07:32:53;;;;;;;6.90;6.70;;;8.50;89.10;;;;;;4868543;29;21033;-81
2022/11/19 07:35:22;;;;;;;7.10;7.00;;;8.50;1.00;;;;;;4871291;29;20466;-80
2022/11/19 07:37:50;;;;;;;7.50;7.30;;;8.60;99.90;;;;;;4869084;29;21112;-81
2022/11/19 07:40:18;;;;;;;7.37;7.17;;;8.60;99.90;;;;;;4862458;29;20621;-81
2022/11/19 07:42:48;;;;;;;7.67;7.47;;;8.60;1.00;;;;;;4857371;29;20497;-81
2022/11/19 07:45:16;;;;;;;7.40;7.13;;;8.60;99.90;;;;;;4865162;29;20473;-81
2022/11/19 07:47:45;;;;;;;7.40;7.30;;;8.50;1.00;;;;;;4873828;29;20553;-81
2022/11/19 07:50:14;;;;;;;8.00;7.80;;;8.60;99.90;;;;;;4865489;29;20460;-81
2022/11/19 07:52:43;;;;;;;9.03;8.63;;;8.70;99.90;;;;;;4867121;29;20511;-80
2022/11/19 07:55:11;;;;;;;8.10;7.80;;;8.70;1.00;;;;;;4866652;29;21146;-79
2022/11/19 07:57:39;;;;;;;10.07;9.37;;;8.70;1.00;;;;;;4863647;29;20487;-81
2022/11/19 08:00:08;;;;;;;9.00;8.30;;;8.80;99.90;;;;;;4859321;29;20578;-79
2022/11/19 08:02:36;;;;;;;8.47;8.17;;;8.70;1.00;;;;;;4864981;29;20487;-82
2022/11/19 08:05:05;;;;;;;7.97;7.77;;;8.60;1.00;;;;;;4856117;29;20989;-78
2022/11/19 08:07:37;;;;;;;7.50;7.40;;;8.70;99.90;;;;;;4856597;29;20462;-79
2022/11/19 08:10:06;;;;;;;7.80;7.60;;;8.70;99.90;;;;;;4862921;29;20459;-80
2022/11/19 08:12:35;;;;;;;9.13;8.83;;;8.70;99.90;;;;;;4865851;29;20879;-80
2022/11/19 08:15:03;;;;;;;9.30;9.03;;;8.60;1.00;;;;;;4863309;29;20796;-79
2022/11/19 08:20:18;;;;;;;9.57;9.27;;;9.10;99.90;;;;;;4863743;29;20839;-79
2022/11/19 08:22:47;;;;;;;8.97;8.70;;;9.20;66.70;;;;;;4860731;29;21007;-78
2022/11/19 08:25:15;;;;;;;9.00;8.80;;;9.20;58.80;;;;;;4864914;29;20475;-79
2022/11/19 08:27:43;;;;;;;9.07;8.87;;;9.20;99.90;;;;;;4867703;29;20876;-79
2022/11/19 08:30:13;;;;;;;9.20;8.90;;;9.50;99.90;;;;;;4866208;29;20467;-80
2022/11/19 08:32:41;;;;;;;8.80;8.60;;;9.70;1.00;;;;;;4866163;29;20487;-79
2022/11/19 08:35:09;;;;;;;9.23;9.03;;;9.90;1.00;;;;;;4867683;29;20462;-80
2022/11/19 08:37:38;;;;;;;9.97;9.47;;;9.80;1.00;;;;;;4864705;29;20463;-80
2022/11/19 08:40:09;;;;;;;8.73;8.53;;;9.70;99.90;;;;;;4866415;29;20556;-79
2022/11/19 08:45:22;;;;;;;8.40;8.10;;;9.70;4.30;;;;;;4865568;29;20732;-78
2022/11/19 08:47:51;;;;;;;8.30;8.10;;;9.70;1.00;;;;;;4864599;29;20510;-80
2022/11/19 08:50:19;;;;;;;8.80;8.60;;;9.60;1.00;;;;;;4865113;29;20461;-80
2022/11/19 08:52:56;;;;;;;9.10;8.80;;;9.70;1.00;;;;;;4865543;29;20545;-80
2022/11/19 08:55:28;;;;;;;8.43;8.23;;;9.60;1.00;;;;;;4863152;29;21275;-81
2022/11/19 08:58:00;;;;;;;13.60;12.50;;;9.70;1.00;;;;;;4866155;29;20472;-81
2022/11/19 09:00:29;;;;;;;9.50;9.20;;;9.70;1.00;;;;;;4867728;29;20482;-80
2022/11/19 09:02:57;;;;;;;9.30;8.97;;;9.60;1.00;;;;;;4870229;29;20482;-80
2022/11/19 09:05:26;;;;;;;9.00;8.80;;;9.60;1.00;;;;;;4865118;29;20471;-80
2022/11/19 09:07:54;;;;;;;9.17;8.87;;;9.50;1.00;;;;;;4867153;29;20463;-78
2022/11/19 09:10:22;;;;;;;8.97;8.77;;;9.50;97.60;;;;;;4862658;29;20548;-81
2022/11/19 09:12:52;;;;;;;8.60;8.40;;;9.40;99.90;;;;;;4860505;29;20860;-80
2022/11/19 09:15:21;;;;;;;9.20;9.00;;;9.40;99.90;;;;;;4867442;29;20495;-80
2022/11/19 09:17:50;;;;;;;9.23;8.93;;;9.30;1.00;;;;;;4860333;29;20467;-80
2022/11/19 09:20:18;;;;;;;8.47;8.27;;;9.20;99.90;;;;;;4858240;29;20499;-81
2022/11/19 09:22:46;;;;;;;8.57;8.37;;;9.20;1.00;;;;;;4862629;29;20493;-79
2022/11/19 09:25:14;;;;;;;7.70;7.60;;;9.20;4.90;;;;;;4865731;29;20482;-80
2022/11/19 09:27:43;;;;;;;7.67;7.47;;;9.10;99.90;;;;;;4865073;29;20475;-82
2022/11/19 09:30:13;;;;;;;8.30;8.10;;;9.20;10.30;;;;;;4861976;29;20459;-81
2022/11/19 09:32:41;;;;;;;8.70;8.50;;;9.50;1.00;;;;;;4859510;29;20507;-79
2022/11/19 09:35:10;;;;;;;8.70;8.50;;;9.80;1.00;;;;;;4863353;29;20524;-81
2022/11/19 09:37:38;;;;;;;9.43;9.20;;;9.80;1.00;;;;;;4868118;29;20463;-86
2022/11/19 09:40:08;;;;;;;9.68;9.38;;;9.90;1.00;;;;;;4890922;29;20802;-84
2022/11/19 09:42:44;;;;;;;9.27;9.07;;;10.10;99.90;;;;;;4877850;29;20237;-85
2022/11/19 09:45:22;;;;;;;8.47;8.37;;;9.90;99.90;;;;;;4874927;29;20476;-83
2022/11/19 09:48:12;;;;;;;9.00;8.90;;;9.90;99.90;;;;;;4872436;29;20499;-84
2022/11/19 09:50:49;;;;;;;9.37;9.17;;;9.60;1.00;;;;;;4875739;29;20454;-81
2022/11/19 09:53:22;;;;;;;9.00;8.80;;;9.60;19.40;;;;;;4869174;29;20518;-81
2022/11/19 09:55:53;;;;;;;8.83;8.63;;;9.80;99.90;;;;;;4870448;29;20459;-80
2022/11/19 09:58:26;;;;;;;8.63;8.40;;;9.80;1.00;;;;;;4888586;29;20484;-81
2022/11/19 10:00:55;;;;;;;8.80;8.37;;;9.60;38.50;;;;;;4873789;29;20492;-81
2022/11/19 10:03:25;;;;;;;9.20;8.70;;;9.60;1.00;;;;;;4870711;29;20464;-83
2022/11/19 10:06:28;;;;;;;8.10;7.70;;;9.60;99.90;;;;;;4873953;29;20554;-82
2022/11/19 10:09:18;;;;;;;7.40;7.20;;;9.50;17.30;;;;;;4871182;29;20471;-80
2022/11/19 10:12:06;;;;;;;7.07;6.97;;;9.50;1.00;;;;;;4872636;29;20498;-81
2022/11/19 10:14:56;;;;;;;7.30;7.10;;;9.30;99.90;;;;;;4865375;29;20551;-79
2022/11/19 10:17:36;;;;;;;8.20;7.80;;;9.40;31.10;;;;;;4868314;29;20463;-80
2022/11/19 10:20:20;;;;;;;7.30;7.07;;;9.50;75.10;;;;;;4873635;29;20483;-82
2022/11/19 10:22:56;;;;;;;7.70;7.50;;;9.50;77.80;;;;;;4868977;29;20897;-80
2022/11/19 10:25:30;;;;;;;7.83;7.53;;;9.40;99.90;;;;;;4869782;29;20463;-80
2022/11/19 10:28:06;;;;;;;7.50;7.30;;;9.50;99.90;;;;;;4866557;29;20475;-82
2022/11/19 10:30:34;;;;;;;8.77;8.30;;;9.50;99.90;;;;;;4869038;29;20464;-80
2022/11/19 10:33:12;;;;;;;8.40;8.20;;;9.40;73.50;;;;;;4866768;29;20491;-82
2022/11/19 10:35:44;;;;;;;7.90;7.70;;;9.50;1.00;;;;;;4872043;29;20461;-80
2022/11/19 10:38:21;;;;;;;7.80;7.60;;;9.50;99.90;;;;;;4868118;29;20682;-82
2022/11/19 10:40:53;;;;;;;8.00;7.80;;;9.60;99.90;;;;;;4871353;29;20852;-81
2022/11/19 10:43:27;;;;;;;8.30;8.10;;;9.60;77.40;;;;;;4872248;29;20471;-81
2022/11/19 10:45:57;;;;;;;7.90;7.70;;;9.60;99.90;;;;;;4868774;29;20545;-81
2022/11/19 10:48:36;;;;;;;8.93;8.60;;;9.70;99.90;;;;;;4865570;29;20464;-82
2022/11/19 10:51:13;;;;;;;9.73;9.43;;;10.00;9.50;;;;;;4882747;29;20464;-82
2022/11/19 10:53:42;;;;;;;10.10;9.60;;;10.90;1.00;;;;;;4867553;29;20483;-81
2022/11/19 10:56:14;;;;;;;9.30;9.00;;;11.80;99.90;;;;;;4865945;29;20525;-80
2022/11/19 10:58:46;;;;;;;8.53;8.13;;;12.20;1.00;;;;;;4868188;29;20557;-81
2022/11/19 11:01:21;;;;;;;7.73;7.53;;;12.40;1.00;;;;;;4866327;29;21033;-82
2022/11/19 11:03:58;;;;;;;8.13;7.80;;;12.00;1.00;;;;;;4866184;29;20518;-82
2022/11/19 11:06:26;;;;;;;7.00;6.83;;;12.00;1.00;;;;;;4866716;29;20966;-82
2022/11/19 11:08:55;;;;;;;7.27;6.97;;;11.80;1.00;;;;;;4869851;29;21141;-82
2022/11/19 11:14:50;;;;;;;6.83;6.53;;;11.60;99.90;;;;;;4865735;29;20618;-83
2022/11/19 11:17:16;;;;;;;6.27;6.13;;;10.90;99.90;;;;;;4871386;29;20546;-81
2022/11/19 11:19:55;;;;;;;5.90;5.70;;;10.60;99.90;;;;;;4874983;29;20457;-83
2022/11/19 11:22:23;;;;;;;5.70;5.50;;;10.70;1.00;;;;;;4867447;29;20487;-83
2022/11/19 11:24:51;;;;;;;5.43;5.23;;;10.60;1.00;;;;;;4870344;29;20459;-82
2022/11/19 11:27:22;;;;;;;5.47;5.33;;;10.60;1.00;;;;;;4875415;29;20878;-81
2022/11/19 11:30:05;;;;;;;5.77;5.67;;;10.60;1.00;;;;;;4869372;29;20469;-81
2022/11/19 11:32:34;;;;;;;6.70;6.50;;;10.70;1.00;;;;;;4871831;29;20498;-82
2022/11/19 11:35:03;;;;;;;5.10;4.80;;;10.80;99.90;;;;;;4868152;29;20513;-82
2022/11/19 11:37:36;;;;;;;5.10;4.90;;;10.70;99.90;;;;;;4874673;29;20459;-81
2022/11/19 11:40:07;;;;;;;5.37;5.17;;;10.70;99.90;;;;;;4870482;29;20848;-83
2022/11/19 11:42:35;;;;;;;5.20;5.00;;;10.80;99.90;;;;;;4870163;29;20546;-84
2022/11/19 11:45:05;;;;;;;5.17;5.07;;;10.70;99.90;;;;;;4868146;29;20478;-81
2022/11/19 11:47:39;;;;;;;5.47;5.30;;;10.60;99.90;;;;;;4868911;29;20468;-82
2022/11/19 11:50:17;;;;;;;5.03;4.93;;;10.50;99.90;;;;;;4876111;29;20524;-83
2022/11/19 11:52:50;;;;;;;5.40;5.10;;;10.50;99.90;;;;;;4868048;29;21299;-82
2022/11/19 11:55:31;;;;;;;4.80;4.70;;;10.40;99.90;;;;;;4870176;29;20467;-86
2022/11/19 11:58:01;;;;;;;5.00;4.90;;;10.40;99.90;;;;;;4871957;29;20456;-85
2022/11/19 12:00:34;;;;;;;5.80;5.60;;;10.30;99.90;;;;;;4871330;29;20566;-85
2022/11/19 12:03:04;;;;;;;5.37;5.17;;;10.20;99.90;;;;;;4870966;29;20483;-85
2022/11/19 12:05:46;;;;;;;5.00;4.80;;;10.20;99.90;;;;;;4876530;29;20460;-85
2022/11/19 12:08:30;;;;;;;5.73;5.63;;;10.20;99.90;;;;;;4869229;29;20937;-85
2022/11/19 12:11:05;;;;;;;5.20;5.10;;;10.20;99.90;;;;;;4870918;29;20479;-84
2022/11/19 12:13:59;;;;;;;4.80;4.70;;;10.30;99.90;;;;;;4866918;29;20794;-85
2022/11/19 12:16:38;;;;;;;4.67;4.57;;;10.20;99.90;;;;;;4873849;29;20456;-85
2022/11/19 12:19:25;;;;;;;4.50;4.40;;;10.10;99.90;;;;;;4882531;29;20459;-84
2022/11/19 12:22:03;;;;;;;4.50;4.40;;;9.90;99.90;;;;;;4868794;29;20502;-84
2022/11/19 12:24:50;;;;;;;4.50;4.40;;;9.80;99.90;;;;;;4870077;29;20621;-84
2022/11/19 12:27:28;;;;;;;4.80;4.70;;;9.90;99.90;;;;;;4864721;29;20955;-84
2022/11/19 12:30:04;;;;;;;5.23;5.03;;;9.80;99.90;;;;;;4870638;29;20505;-85
2022/11/19 12:33:06;;;;;;;5.00;4.90;;;9.90;99.90;;;;;;4868555;29;20900;-84
2022/11/19 12:35:52;;;;;;;4.67;4.57;;;10.00;99.90;;;;;;4845432;29;20471;-85
2022/11/19 12:38:35;;;;;;;4.90;4.80;;;9.90;99.90;;;;;;4870007;29;20452;-85
2022/11/19 12:41:20;;;;;;;5.37;5.23;;;9.90;99.90;;;;;;4864545;29;20504;-82
2022/11/19 12:43:55;;;;;;;5.20;5.03;;;9.80;99.90;;;;;;4859913;29;20516;-84
2022/11/19 12:46:38;;;;;;;4.60;4.50;;;9.80;99.90;;;;;;4864522;29;20458;-82
2022/11/19 12:49:32;;;;;;;4.80;4.70;;;9.80;99.90;;;;;;4866916;29;20460;-83
2022/11/19 12:52:12;;;;;;;5.93;5.53;;;9.80;99.90;;;;;;4873036;29;20488;-81
2022/11/19 12:54:54;;;;;;;4.73;4.63;;;10.00;99.90;;;;;;4868778;29;20464;-83
2022/11/19 12:57:39;;;;;;;4.77;4.60;;;9.90;99.90;;;;;;4870434;29;20465;-81
2022/11/19 13:00:14;;;;;;;4.50;4.40;;;9.90;99.90;;;;;;4868542;29;20507;-83
2022/11/19 13:02:56;;;;;;;4.80;4.70;;;9.90;99.90;;;;;;4869520;29;20544;-82
2022/11/19 13:05:34;;;;;;;5.20;5.00;;;9.90;99.90;;;;;;4868506;29;20474;-83
2022/11/19 13:08:07;;;;;;;5.73;5.43;;;9.90;99.90;;;;;;4875281;29;20541;-82
2022/11/19 13:10:43;;;;;;;4.63;4.53;;;9.90;99.90;;;;;;4873421;29;20528;-83
2022/11/19 13:13:16;;;;;;;5.67;5.47;;;9.80;99.90;;;;;;4868619;29;20510;-83
2022/11/19 13:15:47;;;;;;;4.97;4.77;;;9.70;1.00;;;;;;4866420;29;21010;-83
2022/11/19 13:18:17;;;;;;;5.50;5.30;;;9.80;1.00;;;;;;4870052;29;20507;-82
2022/11/19 13:20:49;;;;;;;5.40;5.20;;;9.80;1.00;;;;;;4882000;29;20456;-82
2022/11/19 13:23:24;;;;;;;5.40;5.20;;;9.70;1.00;;;;;;4873082;29;20507;-84
2022/11/19 13:25:58;;;;;;;5.50;5.30;;;9.80;1.00;;;;;;4872656;29;20518;-84
2022/11/19 13:28:32;;;;;;;5.20;4.83;;;9.90;1.00;;;;;;4872763;29;20474;-83
2022/11/19 13:31:07;;;;;;;5.07;4.87;;;10.00;1.00;;;;;;4864631;29;20474;-83
2022/11/19 13:33:40;;;;;;;6.00;5.80;;;9.90;1.00;;;;;;4875201;29;20462;-82
2022/11/19 13:36:18;;;;;;;5.70;5.40;;;9.80;1.00;;;;;;4866761;29;20460;-82
2022/11/19 13:38:52;;;;;;;5.37;5.20;;;9.80;1.00;;;;;;4865361;29;20699;-82
2022/11/19 13:41:26;;;;;;;5.70;5.33;;;9.70;1.00;;;;;;4870098;29;20492;-81
2022/11/19 13:46:46;;;;;;;5.27;5.07;;;9.80;1.00;;;;;;4866027;29;20492;-85
2022/11/19 13:49:20;;;;;;;5.30;5.10;;;9.80;1.00;;;;;;4866956;29;20484;-84